Alfredo Vásquez Cobo International Airport
SKLT : now visible

Airfield :











YOU CAN JOIN US ON...

 
LOGIN :

Register | Disclaimer

   EN    FR    IT 

 









Legend :    VFR   Marginal VFR   IFR   Intensive IFR   Very Intensive IFR
Visi :
Ceiling :
>= 8 km
>= 3000ft
5 to 8 km
1000 to 3000 ft
1500m to 5 km
500 to 1000 ft
800 to 1500m
200 to 500 ft
< 800m
< 200 ft
Symbols :   Thunderstorms  Fog  Heavy snow  Heavy precipitations  Wind > 20 kt






- Airport Elevation : 277 ft
- IATA code : LET


SKLT - Alfredo Vásquez Cobo International

METAR N/A
TAF TAF SKLT
Valid from the 02 at 06:00 until the 03 at 06:00 UTC


020430Z 0206/0306 VRB02KT 9999 SCT010 BKN070
TEMPO 0209/0213 5000 DZRA BKN007
PROB30
TEMPO 0217/02220 5000 TSRA BKN010CB TX29/0218Z TN23/0211Z



MET'MAP, your aeronautical weather chart ! - Copyright ORBIFLY December 2007 - Disclaimer

ORBIFLY MET'MAP TEAM :

Programming & Development : Alexandra Zaïnal
Concept & original design : Baudouin d'Aumeries
Assistance for programming : Marc-Olivier Méhu
Technical & hardware support : Manuel Goepfert

Contact : metmap@orbifly.com




SOURCES & CREDITS :

   NOAA       Earth
Advisory